Time;durP1;ratioP1;P1;durP2;ratioP2;P2;SDS_P1;SDS_P2;PMS_P1;PMS_P2;Temp;Humidity;BMP_temperature;BMP_pressure;BME280_temperature;BME280_humidity;BME280_pressure;Samples;Min_cycle;Max_cycle;Signal;HPM_P1;HPM_P2
2023/08/11 00:01:04;;;;;;;6.00;4.03;;;;;18.30;99081.00;;;;5072381;28;20626;-64
2023/08/11 00:03:31;;;;;;;7.03;4.03;;;;;18.30;99086.00;;;;5072181;28;20044;-64
2023/08/11 00:05:57;;;;;;;4.97;3.90;;;;;18.30;99086.00;;;;5054821;28;20482;-64
2023/08/11 00:08:25;;;;;;;5.53;3.83;;;;;18.30;99078.00;;;;5072428;28;20127;-64
2023/08/11 00:10:52;;;;;;;4.97;4.07;;;;;18.20;99085.00;;;;5072287;28;20047;-64
2023/08/11 00:13:19;;;;;;;7.15;4.15;;;;;18.20;99081.00;;;;5072177;28;20131;-64
2023/08/11 00:15:45;;;;;;;6.50;3.90;;;;;18.20;99082.00;;;;5054268;28;20044;-63
2023/08/11 00:18:12;;;;;;;7.03;4.10;;;;;18.20;99083.00;;;;5072014;28;20406;-63
2023/08/11 00:20:39;;;;;;;5.03;3.85;;;;;18.10;99088.00;;;;5059548;28;20059;-63
2023/08/11 00:23:05;;;;;;;5.80;3.88;;;;;17.90;99086.00;;;;5078403;28;20078;-63
2023/08/11 00:25:32;;;;;;;5.38;4.30;;;;;17.80;99079.00;;;;5078420;28;20478;-63
2023/08/11 00:27:59;;;;;;;4.72;4.20;;;;;17.60;99080.00;;;;5078404;28;20040;-63
2023/08/11 00:30:25;;;;;;;6.60;4.20;;;;;17.50;99073.00;;;;5060580;28;20090;-63
2023/08/11 00:32:52;;;;;;;9.13;4.40;;;;;17.30;99073.00;;;;5060417;28;20501;-63
2023/08/11 00:35:19;;;;;;;4.25;3.58;;;;;17.30;99079.00;;;;5060415;28;20135;-63
2023/08/11 00:37:45;;;;;;;8.38;4.60;;;;;17.40;99086.00;;;;5078428;28;20411;-63
2023/08/11 00:40:12;;;;;;;6.18;3.75;;;;;17.40;99082.00;;;;5060074;28;20079;-63
2023/08/11 00:42:39;;;;;;;6.93;3.67;;;;;17.50;99087.00;;;;5060326;28;20083;-63
2023/08/11 00:45:07;;;;;;;5.45;3.83;;;;;17.50;99077.00;;;;5043969;28;20041;-63
2023/08/11 00:47:34;;;;;;;8.88;3.83;;;;;17.50;99072.00;;;;5060399;28;20079;-63
2023/08/11 00:50:03;;;;;;;4.75;4.13;;;;;17.40;99067.00;;;;5078166;28;20671;-63
2023/08/11 00:52:29;;;;;;;5.13;3.80;;;;;17.30;99070.00;;;;5078345;28;20036;-63
2023/08/11 00:54:56;;;;;;;5.40;4.15;;;;;17.20;99062.00;;;;5060278;28;20071;-63
2023/08/11 00:57:23;;;;;;;7.65;4.32;;;;;17.30;99067.00;;;;5060486;28;20040;-63
2023/08/11 00:59:50;;;;;;;4.97;3.22;;;;;17.20;99066.00;;;;5078136;28;20050;-63
2023/08/11 01:02:17;;;;;;;5.00;3.55;;;;;17.10;99058.00;;;;5078285;28;20485;-63
2023/08/11 01:04:44;;;;;;;4.32;3.67;;;;;17.00;99063.00;;;;5077964;28;20044;-63
2023/08/11 01:07:31;;;;;;;4.35;3.42;;;;;17.00;99064.00;;;;5060365;28;20501;-63
2023/08/11 01:10:12;;;;;;;7.07;4.53;;;;;17.10;99057.00;;;;5076912;28;20501;-63
2023/08/11 01:12:51;;;;;;;8.27;4.25;;;;;17.20;99056.00;;;;5078086;28;20044;-63
2023/08/11 01:15:25;;;;;;;5.30;3.90;;;;;17.20;99053.00;;;;5078386;28;20041;-63
2023/08/11 01:17:53;;;;;;;3.72;3.42;;;;;17.10;99050.00;;;;5078237;28;20052;-63
2023/08/11 01:20:20;;;;;;;7.65;3.92;;;;;17.00;99044.00;;;;5059915;28;20048;-63
2023/08/11 01:22:51;;;;;;;6.10;4.22;;;;;17.00;99051.00;;;;5060008;28;20496;-63
2023/08/11 01:25:19;;;;;;;5.82;4.35;;;;;16.90;99050.00;;;;5060091;28;20079;-63
2023/08/11 01:27:51;;;;;;;6.82;4.70;;;;;16.90;99051.00;;;;5077980;28;20064;-63
2023/08/11 01:30:18;;;;;;;4.47;3.83;;;;;17.00;99057.00;;;;5077131;28;20079;-63
2023/08/11 01:32:45;;;;;;;4.65;4.05;;;;;17.00;99057.00;;;;5055969;28;20600;-63
2023/08/11 01:35:13;;;;;;;5.72;4.75;;;;;17.00;99054.00;;;;5056457;28;20450;-63
2023/08/11 01:37:51;;;;;;;7.80;4.30;;;;;17.00;99061.00;;;;5074833;28;20071;-63
2023/08/11 01:40:19;;;;;;;5.38;3.90;;;;;16.80;99053.00;;;;5056548;28;20051;-63
2023/08/11 01:42:45;;;;;;;6.55;4.13;;;;;16.80;99050.00;;;;5039963;28;20049;-63
2023/08/11 01:45:22;;;;;;;5.78;4.10;;;;;16.70;99051.00;;;;5074635;28;20493;-63
2023/08/11 01:47:50;;;;;;;5.82;3.67;;;;;16.60;99044.00;;;;5056667;28;20086;-63
2023/08/11 01:50:18;;;;;;;5.68;4.35;;;;;16.60;99039.00;;;;5074601;28;20498;-63
2023/08/11 01:52:46;;;;;;;6.10;4.43;;;;;16.50;99044.00;;;;5056660;28;20052;-63
2023/08/11 01:55:14;;;;;;;4.57;4.18;;;;;16.50;99055.00;;;;5074949;28;20047;-63
2023/08/11 01:57:41;;;;;;;7.00;4.47;;;;;16.70;99048.00;;;;5056311;28;20509;-63
2023/08/11 02:00:25;;;;;;;7.05;4.30;;;;;16.80;99040.00;;;;5056477;28;20413;-62
2023/08/11 02:02:52;;;;;;;6.55;4.28;;;;;16.90;99048.00;;;;5074335;28;20465;-63
2023/08/11 02:05:19;;;;;;;6.65;4.05;;;;;16.90;99040.00;;;;5056263;28;20139;-63
2023/08/11 02:07:46;;;;;;;8.52;3.70;;;;;17.00;99031.00;;;;5056341;28;20048;-63
2023/08/11 02:10:12;;;;;;;4.57;3.88;;;;;17.00;99036.00;;;;5073771;28;20037;-64
2023/08/11 02:12:40;;;;;;;7.50;4.22;;;;;16.90;99038.00;;;;5056468;28;20119;-64
2023/08/11 02:15:07;;;;;;;7.43;4.45;;;;;17.00;99037.00;;;;5056201;28;20045;-64
2023/08/11 02:17:34;;;;;;;5.97;3.80;;;;;17.00;99038.00;;;;5074029;28;20635;-64
2023/08/11 02:20:09;;;;;;;6.65;3.80;;;;;17.10;99034.00;;;;5055894;28;20505;-64
2023/08/11 02:22:36;;;;;;;5.10;3.97;;;;;17.10;99031.00;;;;5074112;28;20055;-63
2023/08/11 02:25:03;;;;;;;8.15;4.35;;;;;16.80;99022.00;;;;5055949;28;20135;-64
2023/08/11 02:27:29;;;;;;;5.68;4.40;;;;;16.60;99028.00;;;;5074115;28;20040;-63
2023/08/11 02:29:56;;;;;;;5.93;4.20;;;;;16.60;99030.00;;;;5073750;28;20040;-63
2023/08/11 02:32:23;;;;;;;8.63;4.22;;;;;16.50;99023.00;;;;5074039;28;20041;-63
2023/08/11 02:34:49;;;;;;;7.20;4.22;;;;;16.40;99022.00;;;;5073756;28;20119;-63
2023/08/11 02:37:16;;;;;;;6.60;3.90;;;;;16.50;99021.00;;;;5073806;28;20041;-63
2023/08/11 02:39:44;;;;;;;7.95;4.22;;;;;16.60;99029.00;;;;5073473;28;20040;-64
2023/08/11 02:42:10;;;;;;;5.15;4.10;;;;;16.60;99032.00;;;;5073372;28;20090;-64
2023/08/11 02:44:37;;;;;;;8.77;4.32;;;;;16.60;99030.00;;;;5073604;28;20566;-64
2023/08/11 02:47:03;;;;;;;5.45;3.97;;;;;16.70;99033.00;;;;5055514;28;20044;-64
2023/08/11 02:49:30;;;;;;;9.02;3.95;;;;;16.60;99032.00;;;;5055573;28;20048;-63
2023/08/11 02:51:57;;;;;;;5.60;3.97;;;;;16.60;99034.00;;;;5073337;28;20051;-63
2023/08/11 02:54:23;;;;;;;7.10;4.32;;;;;16.60;99037.00;;;;5073176;28;20042;-64
2023/08/11 02:56:50;;;;;;;4.40;3.97;;;;;16.60;99034.00;;;;5073259;28;20050;-63
2023/08/11 02:59:17;;;;;;;7.40;4.32;;;;;16.70;99039.00;;;;5073522;28;20047;-63
2023/08/11 03:01:44;;;;;;;5.40;4.10;;;;;16.70;99049.00;;;;5055946;28;20098;-64
2023/08/11 03:04:11;;;;;;;6.22;4.35;;;;;16.70;99050.00;;;;5055550;28;20056;-64
2023/08/11 03:06:37;;;;;;;4.55;4.10;;;;;16.70;99056.00;;;;5056318;28;20045;-64
2023/08/11 03:09:04;;;;;;;4.43;4.03;;;;;16.70;99060.00;;;;5056725;28;20235;-64
2023/08/11 03:11:31;;;;;;;6.15;4.30;;;;;16.60;99057.00;;;;5055783;28;20045;-63
2023/08/11 03:13:57;;;;;;;5.63;4.40;;;;;16.60;99065.00;;;;5056036;28;20049;-63
2023/08/11 03:16:25;;;;;;;6.63;4.40;;;;;16.50;99070.00;;;;5055440;28;20429;-63
2023/08/11 03:18:52;;;;;;;5.50;4.15;;;;;16.50;99066.00;;;;5055647;28;20049;-63
2023/08/11 03:21:19;;;;;;;6.03;3.97;;;;;16.50;99064.00;;;;5055080;28;20135;-63
2023/08/11 03:23:48;;;;;;;6.07;4.20;;;;;16.50;99052.00;;;;5054782;28;20049;-63
2023/08/11 03:26:15;;;;;;;7.00;4.35;;;;;16.50;99056.00;;;;5054762;28;20075;-63
2023/08/11 03:28:42;;;;;;;6.82;4.25;;;;;16.30;99054.00;;;;5055095;28;20315;-64
2023/08/11 03:31:09;;;;;;;5.65;4.47;;;;;16.10;99049.00;;;;5054610;28;20053;-63
2023/08/11 03:33:39;;;;;;;5.15;4.53;;;;;16.00;99056.00;;;;5054581;28;20059;-64
2023/08/11 03:36:10;;;;;;;6.65;4.70;;;;;15.90;99056.00;;;;5054662;28;20524;-63
2023/08/11 03:38:37;;;;;;;7.70;4.93;;;;;16.00;99057.00;;;;5054579;28;20048;-63
2023/08/11 03:41:03;;;;;;;8.40;4.60;;;;;16.10;99056.00;;;;5054516;28;20048;-63
2023/08/11 03:43:30;;;;;;;6.57;4.63;;;;;16.00;99057.00;;;;5072226;28;20054;-63
2023/08/11 03:45:56;;;;;;;5.10;4.60;;;;;16.10;99057.00;;;;5054410;28;20554;-63
2023/08/11 03:48:23;;;;;;;5.40;4.25;;;;;16.00;99053.00;;;;5072290;28;20436;-63
2023/08/11 03:50:50;;;;;;;7.55;5.13;;;;;15.90;99054.00;;;;5054163;28;20425;-63
2023/08/11 03:53:16;;;;;;;5.13;4.63;;;;;15.80;99054.00;;;;5072213;28;20067;-63
2023/08/11 03:55:45;;;;;;;6.43;5.10;;;;;15.80;99050.00;;;;5053581;28;20048;-63
2023/08/11 03:58:14;;;;;;;8.10;5.30;;;;;15.90;99047.00;;;;5054104;28;20045;-63
2023/08/11 04:00:43;;;;;;;6.03;4.45;;;;;15.90;99050.00;;;;5054052;28;20045;-63
2023/08/11 04:03:12;;;;;;;6.25;4.60;;;;;15.90;99039.00;;;;5054137;28;20425;-63
2023/08/11 04:05:39;;;;;;;11.38;7.65;;;;;15.80;99036.00;;;;5054233;28;20043;-63
2023/08/11 04:08:05;;;;;;;7.13;4.72;;;;;15.70;99043.00;;;;5054273;28;20440;-61
2023/08/11 04:10:34;;;;;;;10.55;4.95;;;;;15.50;99048.00;;;;5037696;28;20082;-62
2023/08/11 04:13:01;;;;;;;6.40;5.00;;;;;15.50;99042.00;;;;5071766;28;20133;-62
2023/08/11 04:15:28;;;;;;;5.88;5.28;;;;;15.40;99056.00;;;;5053814;28;20052;-63
2023/08/11 04:17:54;;;;;;;7.97;5.22;;;;;15.50;99052.00;;;;5054029;28;20071;-63
2023/08/11 04:20:22;;;;;;;6.07;4.82;;;;;15.50;99055.00;;;;5071531;28;20044;-62
2023/08/11 04:22:49;;;;;;;6.80;4.65;;;;;15.50;99057.00;;;;5054060;28;20135;-63
2023/08/11 04:25:16;;;;;;;7.05;4.97;;;;;15.60;99054.00;;;;5054117;28;20417;-63
2023/08/11 04:27:45;;;;;;;4.82;4.30;;;;;15.70;99061.00;;;;5053926;28;20099;-63
2023/08/11 04:30:12;;;;;;;5.55;4.63;;;;;15.70;99057.00;;;;5053773;28;20040;-63
2023/08/11 04:32:43;;;;;;;8.55;5.07;;;;;15.70;99057.00;;;;5053876;28;20056;-63
2023/08/11 04:35:10;;;;;;;8.88;4.78;;;;;15.70;99050.00;;;;5071800;28;20048;-62
2023/08/11 04:37:39;;;;;;;7.47;5.47;;;;;15.70;99052.00;;;;5053958;28;20413;-63
2023/08/11 04:40:10;;;;;;;7.03;4.82;;;;;15.70;99060.00;;;;5053655;28;20251;-63
2023/08/11 04:42:41;;;;;;;7.15;4.35;;;;;15.60;99051.00;;;;5054006;28;20049;-63
2023/08/11 04:45:11;;;;;;;9.30;5.13;;;;;15.60;99042.00;;;;5053925;28;20440;-63
2023/08/11 04:47:39;;;;;;;7.78;5.03;;;;;15.60;99051.00;;;;5053959;28;20060;-63
2023/08/11 04:50:09;;;;;;;6.05;5.18;;;;;15.60;99052.00;;;;5053563;28;20098;-63
2023/08/11 04:52:35;;;;;;;8.32;5.45;;;;;15.70;99047.00;;;;5054057;28;20075;-63
2023/08/11 04:55:03;;;;;;;8.57;5.65;;;;;15.70;99044.00;;;;5053739;28;20110;-63
2023/08/11 04:57:30;;;;;;;7.32;4.85;;;;;15.80;99054.00;;;;5054010;28;20409;-64
2023/08/11 04:59:58;;;;;;;8.90;4.75;;;;;15.90;99048.00;;;;5053565;28;20451;-63
2023/08/11 05:02:24;;;;;;;6.30;4.78;;;;;15.80;99053.00;;;;5037216;28;20427;-63
2023/08/11 05:04:51;;;;;;;6.25;4.28;;;;;15.70;99042.00;;;;5071449;28;20062;-63
2023/08/11 05:07:17;;;;;;;7.72;4.35;;;;;15.80;99050.00;;;;5057421;28;20441;-63
2023/08/11 05:09:44;;;;;;;5.15;4.53;;;;;15.80;99053.00;;;;5075225;28;20040;-63
2023/08/11 05:12:12;;;;;;;5.78;4.45;;;;;15.90;99055.00;;;;5057241;28;20052;-63
2023/08/11 05:14:38;;;;;;;5.53;4.93;;;;;15.90;99059.00;;;;5075213;28;20036;-63
2023/08/11 05:17:05;;;;;;;7.43;4.47;;;;;15.90;99058.00;;;;5057554;28;20040;-64
2023/08/11 05:19:32;;;;;;;8.90;3.92;;;;;15.90;99060.00;;;;5075226;28;20123;-62
2023/08/11 05:21:58;;;;;;;5.10;3.72;;;;;16.10;99060.00;;;;5075216;28;20119;-63
2023/08/11 05:24:25;;;;;;;8.38;4.72;;;;;16.20;99066.00;;;;5075603;28;20113;-63
2023/08/11 05:26:51;;;;;;;8.80;4.90;;;;;16.40;99061.00;;;;5058611;28;20632;-63
2023/08/11 05:29:18;;;;;;;8.25;5.85;;;;;16.50;99057.00;;;;5058947;28;20151;-63
2023/08/11 05:31:45;;;;;;;4.95;4.40;;;;;16.60;99060.00;;;;5076167;28;20127;-63
2023/08/11 05:34:11;;;;;;;6.97;4.97;;;;;16.80;99070.00;;;;5076463;28;20044;-63
2023/08/11 05:36:38;;;;;;;6.22;4.78;;;;;16.80;99071.00;;;;5076250;28;20055;-63
2023/08/11 05:39:06;;;;;;;6.05;4.90;;;;;17.00;99068.00;;;;5076840;28;20132;-63
2023/08/11 05:41:33;;;;;;;7.00;4.68;;;;;17.00;99065.00;;;;5058511;28;20079;-63
2023/08/11 05:44:00;;;;;;;5.65;4.30;;;;;17.10;99072.00;;;;5076609;28;20111;-63
2023/08/11 05:46:26;;;;;;;6.72;4.72;;;;;17.20;99063.00;;;;5059199;28;20129;-63
2023/08/11 05:48:53;;;;;;;7.13;4.70;;;;;17.20;99075.00;;;;5076536;28;20404;-63
2023/08/11 05:51:19;;;;;;;5.75;4.43;;;;;17.20;99063.00;;;;5058285;28;20044;-63
2023/08/11 05:53:47;;;;;;;6.70;5.05;;;;;17.30;99065.00;;;;5076367;28;20041;-63
2023/08/11 05:56:14;;;;;;;8.15;4.68;;;;;17.30;99067.00;;;;5076497;28;20067;-63
2023/08/11 05:58:41;;;;;;;5.15;3.97;;;;;17.30;99066.00;;;;5076333;28;20525;-63
2023/08/11 06:01:08;;;;;;;4.35;3.83;;;;;17.20;99070.00;;;;5058156;28;20107;-63
2023/08/11 06:03:35;;;;;;;4.97;4.28;;;;;17.30;99071.00;;;;5057728;28;20045;-63
2023/08/11 06:06:04;;;;;;;6.00;4.78;;;;;17.30;99067.00;;;;5076218;28;20116;-62
2023/08/11 06:08:31;;;;;;;6.82;5.07;;;;;17.40;99070.00;;;;5058330;28;20045;-63
2023/08/11 06:10:57;;;;;;;8.38;7.05;;;;;17.50;99066.00;;;;5075981;28;20043;-63
2023/08/11 06:13:24;;;;;;;5.72;4.72;;;;;17.60;99071.00;;;;5075528;28;20056;-63
2023/08/11 06:15:50;;;;;;;7.80;4.55;;;;;17.70;99076.00;;;;5057573;28;20052;-63
2023/08/11 06:18:17;;;;;;;4.78;3.65;;;;;17.90;99067.00;;;;5075353;28;20128;-63
2023/08/11 06:20:44;;;;;;;5.80;4.15;;;;;17.90;99071.00;;;;5076277;28;20098;-63
2023/08/11 06:23:12;;;;;;;5.78;4.15;;;;;17.90;99070.00;;;;5075322;28;20047;-63
2023/08/11 06:25:38;;;;;;;6.75;4.60;;;;;18.00;99066.00;;;;5074236;28;20063;-63
2023/08/11 06:28:07;;;;;;;5.50;3.70;;;;;18.10;99075.00;;;;5056586;28;20044;-63
2023/08/11 06:30:34;;;;;;;5.97;3.90;;;;;18.20;99073.00;;;;5074075;28;20117;-62
2023/08/11 06:33:00;;;;;;;5.63;3.90;;;;;18.20;99076.00;;;;5073893;28;20044;-62
2023/08/11 06:35:27;;;;;;;7.75;5.18;;;;;18.30;99077.00;;;;5056076;28;20044;-63
2023/08/11 06:37:54;;;;;;;9.05;7.53;;;;;18.40;99081.00;;;;5056190;28;20044;-63
2023/08/11 06:40:20;;;;;;;4.10;3.80;;;;;18.50;99077.00;;;;5073664;28;20055;-63
2023/08/11 06:42:47;;;;;;;4.00;3.58;;;;;18.70;99076.00;;;;5073703;28;20051;-63
2023/08/11 06:45:14;;;;;;;6.38;4.03;;;;;18.90;99078.00;;;;5039611;28;20045;-62
2023/08/11 06:47:41;;;;;;;4.80;4.30;;;;;19.00;99087.00;;;;5073770;28;20040;-62
2023/08/11 06:50:08;;;;;;;8.32;5.82;;;;;19.20;99086.00;;;;5073307;28;20063;-62
2023/08/11 06:52:34;;;;;;;6.55;4.38;;;;;19.20;99091.00;;;;5073528;28;20051;-62
2023/08/11 06:55:01;;;;;;;7.95;4.07;;;;;19.30;99084.00;;;;5073509;28;20128;-62
2023/08/11 06:57:28;;;;;;;8.82;6.95;;;;;19.50;99097.00;;;;5073617;28;20047;-62
2023/08/11 06:59:55;;;;;;;6.22;4.38;;;;;19.50;99091.00;;;;5055276;28;20059;-62
2023/08/11 07:02:22;;;;;;;8.02;3.55;;;;;19.60;99093.00;;;;5073186;28;20490;-62
2023/08/11 07:04:49;;;;;;;7.55;3.60;;;;;19.80;99100.00;;;;5073376;28;20047;-62
2023/08/11 07:07:15;;;;;;;6.20;4.00;;;;;19.90;99100.00;;;;5039010;28;20456;-62
2023/08/11 07:09:42;;;;;;;4.65;3.85;;;;;20.00;99100.00;;;;5055667;28;20494;-63
2023/08/11 07:12:09;;;;;;;4.88;4.32;;;;;20.10;99101.00;;;;5055686;28;20048;-62
2023/08/11 07:14:35;;;;;;;4.32;3.60;;;;;20.20;99097.00;;;;5073001;28;20036;-63
2023/08/11 07:17:02;;;;;;;6.22;3.75;;;;;20.20;99100.00;;;;5073082;28;20131;-62
2023/08/11 07:19:28;;;;;;;3.47;3.17;;;;;20.40;99102.00;;;;5072643;28;20044;-62
2023/08/11 07:21:55;;;;;;;6.90;3.45;;;;;20.50;99098.00;;;;5072960;28;20052;-62
2023/08/11 07:24:22;;;;;;;7.35;4.25;;;;;20.60;99098.00;;;;5072775;28;20128;-62
2023/08/11 07:26:48;;;;;;;5.60;4.00;;;;;20.70;99097.00;;;;5072758;28;20055;-62
2023/08/11 07:29:15;;;;;;;8.32;5.40;;;;;20.80;99098.00;;;;5071403;28;20113;-63
2023/08/11 07:31:43;;;;;;;8.77;3.85;;;;;20.90;99098.00;;;;5072905;28;20132;-62
2023/08/11 07:34:09;;;;;;;8.82;4.65;;;;;21.10;99099.00;;;;5072437;28;20044;-63
2023/08/11 07:36:36;;;;;;;3.45;3.15;;;;;21.10;99098.00;;;;5054999;28;20041;-62
2023/08/11 07:39:07;;;;;;;4.13;3.55;;;;;21.30;99102.00;;;;5072583;28;20051;-63
2023/08/11 07:41:48;;;;;;;4.60;3.17;;;;;21.40;99101.00;;;;5072722;28;20060;-62
2023/08/11 07:44:15;;;;;;;6.03;3.50;;;;;21.50;99102.00;;;;5054837;28;20131;-63
2023/08/11 07:46:42;;;;;;;6.13;3.40;;;;;21.60;99103.00;;;;5072561;28;20102;-62
2023/08/11 07:49:08;;;;;;;6.78;3.65;;;;;21.80;99109.00;;;;5072653;28;20052;-63
2023/08/11 07:51:35;;;;;;;7.50;3.78;;;;;21.90;99110.00;;;;5072904;28;20044;-63
2023/08/11 07:54:02;;;;;;;4.72;4.22;;;;;22.00;99106.00;;;;5055252;28;20060;-61
2023/08/11 07:56:28;;;;;;;9.68;3.65;;;;;22.00;99119.00;;;;5055126;28;20086;-60
2023/08/11 07:58:55;;;;;;;6.00;3.53;;;;;22.20;99112.00;;;;5073146;28;20047;-61
2023/08/11 08:01:23;;;;;;;6.28;3.30;;;;;22.30;99109.00;;;;5055542;28;20045;-59
2023/08/11 08:03:50;;;;;;;9.38;5.45;;;;;22.40;99107.00;;;;5073115;28;20144;-60
2023/08/11 08:06:17;;;;;;;6.03;3.38;;;;;22.50;99117.00;;;;5072060;28;20090;-59
2023/08/11 08:08:44;;;;;;;6.22;3.58;;;;;22.70;99121.00;;;;5072284;28;20044;-59
2023/08/11 08:11:10;;;;;;;4.97;3.10;;;;;22.80;99118.00;;;;5072107;28;20037;-59
2023/08/11 08:13:37;;;;;;;10.27;3.95;;;;;22.90;99121.00;;;;5071972;28;20059;-59
2023/08/11 08:16:04;;;;;;;6.13;3.67;;;;;23.10;99120.00;;;;5071610;28;20048;-59
2023/08/11 08:18:30;;;;;;;5.35;3.33;;;;;23.30;99123.00;;;;5071945;28;20062;-60
2023/08/11 08:20:57;;;;;;;5.97;2.90;;;;;23.40;99114.00;;;;5054065;28;20119;-60
2023/08/11 08:23:23;;;;;;;3.20;2.90;;;;;23.50;99111.00;;;;5053855;28;20097;-60
2023/08/11 08:25:50;;;;;;;4.57;2.95;;;;;23.50;99114.00;;;;5072087;28;20040;-60
2023/08/11 08:28:16;;;;;;;4.20;3.00;;;;;23.50;99121.00;;;;5071865;28;20155;-60
2023/08/11 08:30:43;;;;;;;3.90;2.50;;;;;23.70;99113.00;;;;5071664;28;20048;-60
2023/08/11 08:33:09;;;;;;;4.82;2.97;;;;;23.80;99115.00;;;;5071725;28;20060;-61
2023/08/11 08:35:37;;;;;;;4.75;2.90;;;;;23.90;99113.00;;;;5071741;28;20037;-60
2023/08/11 08:38:05;;;;;;;4.32;2.45;;;;;24.00;99109.00;;;;5071692;28;20068;-60
2023/08/11 08:40:34;;;;;;;5.13;2.65;;;;;24.10;99111.00;;;;5072664;28;20499;-60
2023/08/11 08:43:02;;;;;;;4.35;2.88;;;;;24.20;99109.00;;;;5075793;28;20110;-60
2023/08/11 08:45:30;;;;;;;4.22;2.33;;;;;24.30;99115.00;;;;5075793;28;20075;-60
2023/08/11 08:47:59;;;;;;;5.47;2.92;;;;;24.40;99110.00;;;;5057826;28;20041;-60
2023/08/11 08:50:26;;;;;;;7.15;2.72;;;;;24.50;99113.00;;;;5075256;28;20089;-60
2023/08/11 08:52:53;;;;;;;5.75;2.17;;;;;24.60;99106.00;;;;5075901;28;20040;-61
2023/08/11 08:55:20;;;;;;;4.80;2.83;;;;;24.70;99112.00;;;;5075527;28;20048;-60
2023/08/11 08:57:49;;;;;;;4.63;3.47;;;;;24.80;99111.00;;;;5075451;28;20045;-60
2023/08/11 09:00:18;;;;;;;4.40;3.03;;;;;24.90;99107.00;;;;5057390;28;20076;-60
2023/08/11 09:02:45;;;;;;;4.50;2.72;;;;;25.00;99101.00;;;;5057317;28;20131;-60
2023/08/11 09:05:12;;;;;;;4.63;2.65;;;;;25.10;99100.00;;;;5057595;28;20045;-61
2023/08/11 09:07:39;;;;;;;4.22;2.50;;;;;25.20;99102.00;;;;5075500;28;20082;-61
2023/08/11 09:10:07;;;;;;;4.10;2.78;;;;;25.30;99108.00;;;;5057172;28;20071;-61
2023/08/11 09:12:34;;;;;;;4.38;2.30;;;;;25.50;99101.00;;;;5075114;28;20124;-61
2023/08/11 09:15:11;;;;;;;3.40;3.10;;;;;25.60;99102.00;;;;5057122;28;20126;-61
2023/08/11 09:17:39;;;;;;;3.13;2.50;;;;;25.70;99100.00;;;;5074817;28;20040;-61
2023/08/11 09:20:10;;;;;;;4.88;3.15;;;;;25.80;99099.00;;;;5056619;28;20063;-61
2023/08/11 09:22:38;;;;;;;3.83;2.28;;;;;25.90;99099.00;;;;5057524;28;20057;-61
2023/08/11 09:25:05;;;;;;;2.70;2.50;;;;;26.00;99106.00;;;;5074800;28;20051;-61
2023/08/11 09:27:32;;;;;;;4.05;2.47;;;;;26.10;99096.00;;;;5075048;28;20067;-62
2023/08/11 09:29:59;;;;;;;2.83;2.40;;;;;26.20;99103.00;;;;5074794;28;20090;-62
2023/08/11 09:32:26;;;;;;;3.13;2.35;;;;;26.30;99100.00;;;;5074897;28;20044;-62
2023/08/11 09:34:53;;;;;;;2.67;2.30;;;;;26.30;99101.00;;;;5074443;28;20045;-61
2023/08/11 09:37:19;;;;;;;4.30;2.40;;;;;26.30;99095.00;;;;5056619;28;20040;-61
2023/08/11 09:39:49;;;;;;;3.53;2.40;;;;;26.50;99103.00;;;;5074418;28;20044;-61
2023/08/11 09:42:18;;;;;;;3.95;2.35;;;;;26.60;99093.00;;;;5057150;28;20528;-61
2023/08/11 09:44:45;;;;;;;5.43;2.83;;;;;26.70;99095.00;;;;5056534;28;20076;-62
2023/08/11 09:47:11;;;;;;;3.40;2.70;;;;;26.90;99098.00;;;;5074859;28;20047;-62
2023/08/11 09:49:47;;;;;;;3.70;2.47;;;;;26.90;99097.00;;;;5074095;28;20040;-62
2023/08/11 09:52:15;;;;;;;3.47;2.40;;;;;27.10;99102.00;;;;5055329;28;20049;-62
2023/08/11 09:54:43;;;;;;;2.53;2.33;;;;;27.30;99100.00;;;;5074492;28;20044;-61
2023/08/11 09:57:13;;;;;;;3.58;2.55;;;;;27.30;99098.00;;;;5056691;28;20071;-62
2023/08/11 09:59:44;;;;;;;2.75;2.30;;;;;27.40;99101.00;;;;5074099;28;20654;-61
2023/08/11 10:02:16;;;;;;;2.60;2.40;;;;;27.40;99098.00;;;;5074583;28;20048;-61
2023/08/11 10:04:56;;;;;;;4.72;2.67;;;;;27.40;99092.00;;;;5074410;28;20386;-62
2023/08/11 10:07:35;;;;;;;2.70;2.50;;;;;27.40;99092.00;;;;5074389;28;20549;-61
2023/08/11 10:10:17;;;;;;;3.30;2.50;;;;;27.40;99085.00;;;;5073940;28;20045;-61
2023/08/11 10:13:05;;;;;;;6.68;2.97;;;;;27.50;99080.00;;;;5074218;28;20090;-62
2023/08/11 10:15:33;;;;;;;3.33;2.70;;;;;27.60;99088.00;;;;5074035;28;20037;-62
2023/08/11 10:18:01;;;;;;;2.80;2.42;;;;;27.90;99081.00;;;;5073906;28;20040;-62
2023/08/11 10:20:29;;;;;;;4.80;3.40;;;;;28.00;99076.00;;;;5073455;28;20040;-62
2023/08/11 10:22:56;;;;;;;3.75;2.80;;;;;28.10;99077.00;;;;5074204;28;20045;-62
2023/08/11 10:25:24;;;;;;;2.22;2.03;;;;;28.20;99076.00;;;;5074504;28;20052;-62
2023/08/11 10:27:51;;;;;;;4.80;2.50;;;;;28.30;99076.00;;;;5056339;28;20131;-61
2023/08/11 10:30:18;;;;;;;3.20;2.70;;;;;28.30;99068.00;;;;5073887;28;20516;-62
2023/08/11 10:32:45;;;;;;;3.72;2.60;;;;;28.20;99069.00;;;;5056508;28;20047;-63
2023/08/11 10:35:46;;;;;;;3.65;2.80;;;;;28.20;99062.00;;;;5074604;28;20040;-62
2023/08/11 10:38:16;;;;;;;2.75;2.55;;;;;28.20;99063.00;;;;5074213;28;20527;-62
2023/08/11 10:40:44;;;;;;;5.65;2.78;;;;;28.50;99059.00;;;;5073778;28;20048;-62
2023/08/11 10:43:10;;;;;;;2.72;2.40;;;;;28.60;99057.00;;;;5073245;28;20044;-61
2023/08/11 10:45:39;;;;;;;2.90;2.60;;;;;28.70;99063.00;;;;5073596;28;20048;-62
2023/08/11 10:48:07;;;;;;;3.33;2.47;;;;;28.80;99056.00;;;;5073370;28;20044;-61
2023/08/11 10:50:38;;;;;;;2.92;2.53;;;;;29.00;99060.00;;;;5073040;28;20040;-61
2023/08/11 10:53:19;;;;;;;2.83;2.50;;;;;29.20;99059.00;;;;5073209;28;20044;-61
2023/08/11 10:56:02;;;;;;;2.58;2.38;;;;;29.30;99059.00;;;;5073276;28;20115;-61
2023/08/11 10:58:30;;;;;;;2.38;2.17;;;;;29.40;99056.00;;;;5073237;28;20045;-62
2023/08/11 11:00:59;;;;;;;3.92;2.50;;;;;29.40;99056.00;;;;5073384;28;20477;-62
2023/08/11 11:03:26;;;;;;;3.45;2.15;;;;;29.50;99065.00;;;;5072628;28;20468;-62
2023/08/11 11:05:52;;;;;;;2.53;2.30;;;;;29.50;99064.00;;;;5073087;28;20126;-62
2023/08/11 11:08:19;;;;;;;2.30;2.10;;;;;29.70;99062.00;;;;5054644;28;20465;-61
2023/08/11 11:10:46;;;;;;;2.47;2.25;;;;;29.70;99061.00;;;;5072061;28;20100;-62
2023/08/11 11:13:16;;;;;;;3.25;2.20;;;;;29.70;99053.00;;;;5073244;28;20043;-62
2023/08/11 11:15:43;;;;;;;2.53;2.33;;;;;29.70;99048.00;;;;5054929;28;20045;-62
2023/08/11 11:18:10;;;;;;;2.83;2.15;;;;;29.70;99043.00;;;;5072716;28;20648;-62
2023/08/11 11:20:37;;;;;;;2.42;2.00;;;;;29.70;99048.00;;;;5072508;28;20044;-62
2023/08/11 11:23:05;;;;;;;2.65;2.28;;;;;29.80;99048.00;;;;5072691;28;20482;-62
2023/08/11 11:25:32;;;;;;;3.83;2.67;;;;;29.90;99042.00;;;;5072746;28;20486;-62
2023/08/11 11:27:58;;;;;;;2.22;2.03;;;;;30.00;99047.00;;;;5072616;28;20043;-62
2023/08/11 11:30:25;;;;;;;5.28;2.20;;;;;30.00;99050.00;;;;5072520;28;20551;-62
2023/08/11 11:32:52;;;;;;;2.17;1.98;;;;;30.00;99051.00;;;;5038149;28;20056;-62
2023/08/11 11:35:19;;;;;;;2.85;1.83;;;;;30.10;99056.00;;;;5072637;28;20094;-62
2023/08/11 11:37:46;;;;;;;3.72;2.05;;;;;30.10;99050.00;;;;5072539;28;20047;-61
2023/08/11 11:40:13;;;;;;;4.10;2.05;;;;;30.30;99054.00;;;;5072337;28;20123;-61
2023/08/11 11:42:40;;;;;;;2.10;1.90;;;;;30.20;99049.00;;;;5072309;28;20047;-62
2023/08/11 11:45:07;;;;;;;2.53;2.05;;;;;30.30;99062.00;;;;5072363;28;20495;-62
2023/08/11 11:47:34;;;;;;;2.40;2.20;;;;;30.50;99056.00;;;;5072483;28;20041;-62
2023/08/11 11:50:07;;;;;;;2.80;1.73;;;;;30.60;99056.00;;;;5072251;28;20044;-62
2023/08/11 11:52:36;;;;;;;3.20;1.85;;;;;30.60;99060.00;;;;5054678;28;20036;-62
2023/08/11 11:55:04;;;;;;;4.45;1.98;;;;;30.60;99061.00;;;;5072319;28;20036;-62
2023/08/11 11:57:30;;;;;;;3.08;2.05;;;;;30.60;99058.00;;;;5072345;28;20393;-62
2023/08/11 11:59:57;;;;;;;1.73;1.63;;;;;30.70;99061.00;;;;5071922;28;20119;-62
2023/08/11 12:02:23;;;;;;;4.80;1.90;;;;;30.80;99058.00;;;;5072185;28;20047;-62
2023/08/11 12:04:50;;;;;;;2.92;2.47;;;;;30.90;99052.00;;;;5072171;28;20044;-62
2023/08/11 12:07:30;;;;;;;2.03;1.92;;;;;30.90;99050.00;;;;5072098;28;20651;-62
2023/08/11 12:09:58;;;;;;;1.90;1.70;;;;;30.90;99054.00;;;;5054271;28;20044;-62
2023/08/11 12:12:28;;;;;;;2.22;1.80;;;;;30.90;99048.00;;;;5072108;28;20064;-62
2023/08/11 12:15:03;;;;;;;2.00;1.80;;;;;31.00;99054.00;;;;5071539;28;20044;-62
2023/08/11 12:17:31;;;;;;;1.70;1.60;;;;;31.10;99062.00;;;;5071864;28;20086;-62
2023/08/11 12:20:00;;;;;;;2.42;1.95;;;;;31.10;99051.00;;;;5071533;28;20517;-62
2023/08/11 12:22:27;;;;;;;1.60;1.50;;;;;31.10;99040.00;;;;5071846;28;20040;-62